createdAt,value
2019-02-15T00:00:50.087Z,-3.07
2019-02-15T00:03:57.643Z,-3.10
2019-02-15T00:07:04.183Z,-3.13
2019-02-15T00:10:11.284Z,-3.17
2019-02-15T00:13:18.108Z,-3.21
2019-02-15T00:16:24.582Z,-3.23
2019-02-15T00:19:42.903Z,-3.21
2019-02-15T00:22:49.576Z,-3.15
2019-02-15T00:25:56.016Z,-3.20
2019-02-15T00:29:03.243Z,-3.23
2019-02-15T00:32:10.216Z,-3.31
2019-02-15T00:35:17.703Z,-3.33
2019-02-15T00:38:24.003Z,-3.33
2019-02-15T00:41:31.247Z,-3.30
2019-02-15T00:44:38.010Z,-3.36
2019-02-15T00:47:53.138Z,-3.39
2019-02-15T00:51:06.344Z,-3.41
2019-02-15T00:54:43.646Z,-3.42
2019-02-15T00:58:21.022Z,-3.41
2019-02-15T01:01:50.829Z,-3.47
2019-02-15T01:05:15.735Z,-3.54
2019-02-15T01:08:27.929Z,-3.54
2019-02-15T01:11:40.098Z,-3.53
2019-02-15T01:14:46.632Z,-3.53
2019-02-15T01:17:53.385Z,-3.53
2019-02-15T01:21:00.119Z,-3.57
2019-02-15T01:24:06.651Z,-3.62
2019-02-15T01:27:22.015Z,-3.62
2019-02-15T01:30:53.700Z,-3.66
2019-02-15T01:34:21.944Z,-3.67
2019-02-15T01:37:34.197Z,-3.69
2019-02-15T01:40:52.247Z,-3.72
2019-02-15T01:44:06.860Z,-3.79
2019-02-15T01:47:20.184Z,-3.84
2019-02-15T01:50:27.524Z,-3.82
2019-02-15T01:53:34.047Z,-3.83
2019-02-15T01:56:40.245Z,-3.83
2019-02-15T01:59:46.800Z,-3.89
2019-02-15T02:02:53.528Z,-3.83
2019-02-15T02:06:00.032Z,-3.82
2019-02-15T02:09:07.731Z,-3.85
2019-02-15T02:12:14.443Z,-3.86
2019-02-15T02:15:21.633Z,-3.86
2019-02-15T02:18:28.446Z,-3.92
2019-02-15T02:21:35.255Z,-3.95
2019-02-15T02:24:41.543Z,-3.93
2019-02-15T02:27:49.427Z,-3.87
2019-02-15T02:30:55.835Z,-3.82
2019-02-15T02:34:02.646Z,-3.95
2019-02-15T02:37:08.786Z,-3.94
2019-02-15T02:40:15.269Z,-3.99
2019-02-15T02:43:21.918Z,-3.99
2019-02-15T02:46:28.930Z,-4.04
2019-02-15T02:49:35.359Z,-4.07
2019-02-15T02:52:42.174Z,-4.06
2019-02-15T02:55:48.261Z,-4.08
2019-02-15T02:58:54.775Z,-4.07
2019-02-15T03:02:01.141Z,-4.04
2019-02-15T03:05:07.750Z,-3.95
2019-02-15T03:08:13.970Z,-3.97
2019-02-15T03:11:20.586Z,-4.04
2019-02-15T03:14:27.280Z,-4.06
2019-02-15T03:17:35.316Z,-4.14
2019-02-15T03:20:42.006Z,-4.15
2019-02-15T03:23:48.719Z,-4.17
2019-02-15T03:26:54.986Z,-4.18
2019-02-15T03:30:01.430Z,-4.19
2019-02-15T03:33:08.100Z,-4.02
2019-02-15T03:36:23.625Z,-3.98
2019-02-15T03:39:39.579Z,-4.02
2019-02-15T03:42:46.542Z,-4.02
2019-02-15T03:45:53.009Z,-3.91
2019-02-15T03:48:59.507Z,-3.87
2019-02-15T03:52:06.187Z,-3.93
2019-02-15T03:55:12.636Z,-4.05
2019-02-15T03:58:19.281Z,-4.11
2019-02-15T04:01:25.810Z,-4.12
2019-02-15T04:04:32.459Z,-4.14
2019-02-15T04:07:39.268Z,-4.14
2019-02-15T04:10:45.852Z,-4.21
2019-02-15T04:13:52.412Z,-4.26
2019-02-15T04:16:58.628Z,-4.28
2019-02-15T04:20:07.698Z,-4.33
2019-02-15T04:23:14.488Z,-4.32
2019-02-15T04:26:21.175Z,-4.39
2019-02-15T04:29:27.638Z,-4.35
2019-02-15T04:32:34.259Z,-4.22
2019-02-15T04:35:41.390Z,-4.28
2019-02-15T04:38:48.373Z,-4.28
2019-02-15T04:41:55.164Z,-4.24
2019-02-15T04:45:01.759Z,-4.25
2019-02-15T04:48:08.005Z,-4.23
2019-02-15T04:51:14.384Z,-4.13
2019-02-15T04:54:20.853Z,-4.17
2019-02-15T04:57:27.972Z,-4.10
2019-02-15T05:00:34.538Z,-4.13
2019-02-15T05:03:41.588Z,-4.26
2019-02-15T05:06:48.351Z,-4.30
2019-02-15T05:09:55.282Z,-4.26
2019-02-15T05:13:02.245Z,-4.26
2019-02-15T05:16:09.154Z,-4.33
2019-02-15T05:19:15.699Z,-4.39
2019-02-15T05:22:22.086Z,-4.37
2019-02-15T05:25:28.667Z,-4.36
2019-02-15T05:28:35.338Z,-4.43
2019-02-15T05:31:42.316Z,-4.50
2019-02-15T05:34:48.840Z,-4.50
2019-02-15T05:37:55.319Z,-4.56
2019-02-15T05:41:01.891Z,-4.50
2019-02-15T05:44:08.297Z,-4.45
2019-02-15T05:47:14.961Z,-4.49
2019-02-15T05:50:21.653Z,-4.53
2019-02-15T05:53:27.903Z,-4.58
2019-02-15T05:56:34.906Z,-4.62
2019-02-15T05:59:41.167Z,-4.62
2019-02-15T06:02:47.730Z,-4.66
2019-02-15T06:05:54.672Z,-4.67
2019-02-15T06:09:01.564Z,-4.70
2019-02-15T06:12:10.939Z,-4.70
2019-02-15T06:15:18.032Z,-4.75
2019-02-15T06:18:24.543Z,-4.70
2019-02-15T06:21:31.927Z,-4.63
2019-02-15T06:24:38.722Z,-4.70
2019-02-15T06:27:45.257Z,-4.70
2019-02-15T06:30:52.092Z,-4.71
2019-02-15T06:33:58.668Z,-4.73
2019-02-15T06:37:05.614Z,-4.77
2019-02-15T06:40:12.104Z,-4.77
2019-02-15T06:43:18.835Z,-4.77
2019-02-15T06:46:25.563Z,-4.77
2019-02-15T06:49:32.426Z,-4.67
2019-02-15T06:52:39.319Z,-4.57
2019-02-15T06:55:45.705Z,-4.57
2019-02-15T06:59:05.575Z,-4.52
2019-02-15T07:02:40.138Z,-4.49
2019-02-15T07:05:47.272Z,-4.53
2019-02-15T07:08:54.152Z,-4.51
2019-02-15T07:12:00.770Z,-4.46
2019-02-15T07:15:08.579Z,-4.50
2019-02-15T07:18:15.192Z,-4.46
2019-02-15T07:21:21.787Z,-4.37
2019-02-15T07:24:28.368Z,-4.38
2019-02-15T07:27:35.468Z,-4.38
2019-02-15T07:30:42.029Z,-4.31
2019-02-15T07:33:48.721Z,-4.25
2019-02-15T07:36:55.113Z,-4.28
2019-02-15T07:40:02.070Z,-4.22
2019-02-15T07:43:09.042Z,-4.16
2019-02-15T07:46:15.649Z,-4.13
2019-02-15T07:49:26.870Z,-4.12
2019-02-15T07:52:31.275Z,-4.09
2019-02-15T07:55:37.838Z,-3.93
2019-02-15T07:58:45.820Z,-3.66
2019-02-15T08:02:01.344Z,-3.39
2019-02-15T08:05:01.171Z,-3.17
2019-02-15T08:08:08.762Z,-2.87
2019-02-15T08:11:16.085Z,-2.59
2019-02-15T08:14:22.938Z,-2.31
2019-02-15T08:17:29.705Z,-1.91
2019-02-15T08:20:36.451Z,-1.69
2019-02-15T08:23:43.120Z,-1.63
2019-02-15T08:26:49.688Z,-1.37
2019-02-15T08:29:56.366Z,-0.96
2019-02-15T08:33:03.005Z,-1.00
2019-02-15T08:36:09.890Z,-0.69
2019-02-15T08:39:16.511Z,-0.39
2019-02-15T08:42:23.573Z,0.06
2019-02-15T08:45:29.926Z,0.14
2019-02-15T08:48:36.409Z,0.32
2019-02-15T08:51:43.471Z,0.53
2019-02-15T08:54:51.231Z,0.85
2019-02-15T08:57:57.954Z,0.97
2019-02-15T09:01:04.767Z,1.16
2019-02-15T09:04:11.157Z,1.42
2019-02-15T09:07:17.810Z,1.57
2019-02-15T09:10:24.283Z,1.86
2019-02-15T09:13:31.748Z,2.18
2019-02-15T09:16:38.423Z,2.47
2019-02-15T09:19:45.122Z,2.75
2019-02-15T09:22:51.487Z,3.02
2019-02-15T09:25:57.905Z,3.27
2019-02-15T09:29:08.000Z,3.48
2019-02-15T09:32:15.006Z,3.74
2019-02-15T09:35:21.378Z,3.98
2019-02-15T09:38:28.351Z,4.20
2019-02-15T09:41:39.042Z,4.35
2019-02-15T09:44:45.719Z,4.58
2019-02-15T09:47:52.580Z,4.68
2019-02-15T09:50:59.485Z,5.06
2019-02-15T09:54:06.412Z,5.35
2019-02-15T09:57:13.436Z,5.67
2019-02-15T10:00:20.935Z,6.27
2019-02-15T10:03:27.752Z,6.33
2019-02-15T10:06:34.917Z,6.40
2019-02-15T10:09:43.264Z,6.70
2019-02-15T10:12:50.601Z,7.08
2019-02-15T10:15:57.498Z,7.43
2019-02-15T10:19:04.752Z,7.77
2019-02-15T10:22:11.640Z,8.08
2019-02-15T10:25:18.448Z,8.41
2019-02-15T10:28:26.191Z,8.70
2019-02-15T10:31:33.845Z,8.91
2019-02-15T10:34:40.712Z,9.25
2019-02-15T10:37:47.130Z,9.47
2019-02-15T10:40:54.179Z,9.65
2019-02-15T10:44:00.945Z,9.84
2019-02-15T10:47:13.976Z,10.08
2019-02-15T10:50:16.445Z,10.34
2019-02-15T10:53:23.264Z,10.70
2019-02-15T10:56:30.003Z,10.81
2019-02-15T10:59:36.988Z,11.15
2019-02-15T11:02:43.908Z,11.41
2019-02-15T11:05:50.711Z,11.61
2019-02-15T11:08:57.079Z,11.71
2019-02-15T11:12:03.898Z,11.83
2019-02-15T11:15:11.392Z,11.98
2019-02-15T11:18:18.773Z,12.01
2019-02-15T11:21:25.299Z,12.06
2019-02-15T11:24:32.202Z,12.33
2019-02-15T11:27:39.072Z,12.47
2019-02-15T11:30:46.648Z,12.61
2019-02-15T11:33:53.241Z,12.74
2019-02-15T11:36:59.965Z,12.72
2019-02-15T11:40:08.340Z,12.70
2019-02-15T11:43:15.291Z,12.77
2019-02-15T11:46:22.044Z,12.90
2019-02-15T11:49:28.855Z,12.98
2019-02-15T11:52:35.653Z,13.08
2019-02-15T11:55:42.591Z,13.22
2019-02-15T11:58:50.839Z,13.39
2019-02-15T12:02:05.902Z,13.50
2019-02-15T12:05:07.068Z,13.55
2019-02-15T12:08:14.225Z,13.60
2019-02-15T12:11:20.825Z,13.62
2019-02-15T12:14:28.488Z,13.62
2019-02-15T12:17:35.921Z,13.68
2019-02-15T12:20:44.579Z,13.53
2019-02-15T12:23:51.495Z,13.43
2019-02-15T12:26:58.014Z,13.64
2019-02-15T12:30:04.836Z,13.84
2019-02-15T12:33:11.601Z,13.93
2019-02-15T12:36:18.416Z,14.01
2019-02-15T12:39:24.785Z,14.12
2019-02-15T12:42:31.298Z,14.20
2019-02-15T12:45:37.846Z,14.23
2019-02-15T12:48:44.979Z,14.18
2019-02-15T12:51:53.296Z,14.04
2019-02-15T12:54:59.604Z,14.09
2019-02-15T12:58:06.440Z,14.08
2019-02-15T13:01:13.064Z,14.19
2019-02-15T13:04:19.482Z,14.28
2019-02-15T13:07:26.728Z,14.28
2019-02-15T13:10:36.167Z,14.36
2019-02-15T13:13:43.556Z,14.31
2019-02-15T13:16:50.232Z,14.45
2019-02-15T13:19:56.552Z,14.38
2019-02-15T13:23:03.050Z,14.31
2019-02-15T13:26:09.638Z,14.33
2019-02-15T13:29:16.904Z,14.38
2019-02-15T13:32:24.019Z,14.38
2019-02-15T13:35:30.852Z,14.34
2019-02-15T13:38:37.572Z,14.31
2019-02-15T13:41:44.376Z,14.23
2019-02-15T13:44:50.691Z,14.13
2019-02-15T13:47:57.461Z,14.09
2019-02-15T13:51:04.185Z,14.02
2019-02-15T13:54:11.161Z,14.04
2019-02-15T13:57:17.581Z,14.23
2019-02-15T14:00:24.488Z,14.06
2019-02-15T14:03:32.922Z,13.97
2019-02-15T14:06:40.521Z,13.82
2019-02-15T14:09:48.170Z,13.70
2019-02-15T14:12:57.169Z,13.57
2019-02-15T14:16:03.778Z,13.81
2019-02-15T14:19:10.145Z,13.79
2019-02-15T14:22:16.868Z,13.68
2019-02-15T14:25:24.286Z,13.55
2019-02-15T14:28:31.099Z,13.37
2019-02-15T14:31:38.467Z,13.19
2019-02-15T14:34:45.591Z,12.99
2019-02-15T14:37:52.605Z,12.89
2019-02-15T14:40:59.278Z,12.72
2019-02-15T14:44:05.513Z,12.52
2019-02-15T14:47:13.237Z,12.41
2019-02-15T14:50:19.873Z,12.64
2019-02-15T14:53:26.784Z,12.48
2019-02-15T14:56:34.691Z,12.92
2019-02-15T14:59:41.254Z,12.45
2019-02-15T15:02:47.876Z,12.06
2019-02-15T15:05:55.138Z,11.88
2019-02-15T15:09:01.988Z,11.62
2019-02-15T15:12:10.880Z,11.47
2019-02-15T15:15:17.389Z,11.18
2019-02-15T15:18:24.181Z,10.98
2019-02-15T15:21:31.049Z,10.55
2019-02-15T15:24:38.049Z,10.37
2019-02-15T15:27:44.999Z,10.17
2019-02-15T15:30:51.658Z,9.92
2019-02-15T15:33:58.372Z,9.64
2019-02-15T15:37:05.171Z,9.25
2019-02-15T15:40:12.723Z,9.14
2019-02-15T15:43:19.146Z,8.83
2019-02-15T15:46:26.100Z,8.35
2019-02-15T15:49:33.226Z,8.13
2019-02-15T15:52:39.861Z,7.98
2019-02-15T15:55:48.373Z,7.68
2019-02-15T15:58:55.522Z,7.27
2019-02-15T16:02:02.832Z,7.14
2019-02-15T16:05:10.105Z,7.00
2019-02-15T16:08:16.707Z,6.70
2019-02-15T16:11:23.782Z,6.57
2019-02-15T16:14:30.766Z,6.13
2019-02-15T16:17:37.874Z,5.81
2019-02-15T16:20:47.007Z,5.67
2019-02-15T16:23:53.680Z,5.46
2019-02-15T16:27:00.041Z,5.30
2019-02-15T16:30:07.888Z,5.12
2019-02-15T16:33:14.854Z,4.91
2019-02-15T16:36:21.534Z,4.78
2019-02-15T16:39:29.565Z,4.67
2019-02-15T16:42:37.194Z,4.49
2019-02-15T16:45:43.739Z,4.38
2019-02-15T16:48:50.392Z,4.31
2019-02-15T16:51:57.154Z,4.18
2019-02-15T16:55:12.401Z,4.05
2019-02-15T16:58:13.738Z,3.91
2019-02-15T17:01:20.175Z,3.76
2019-02-15T17:04:26.657Z,3.56
2019-02-15T17:07:33.528Z,3.37
2019-02-15T17:10:40.502Z,3.24
2019-02-15T17:13:47.501Z,3.15
2019-02-15T17:16:54.230Z,2.94
2019-02-15T17:20:00.840Z,2.87
2019-02-15T17:23:07.936Z,2.77
2019-02-15T17:26:15.163Z,2.68
2019-02-15T17:29:22.008Z,2.56
2019-02-15T17:32:28.827Z,2.41
2019-02-15T17:35:35.069Z,2.23
2019-02-15T17:38:42.155Z,1.99
2019-02-15T17:41:49.524Z,1.89
2019-02-15T17:44:56.111Z,1.81
2019-02-15T17:48:03.104Z,1.74
2019-02-15T17:51:10.026Z,1.63
2019-02-15T17:54:16.807Z,1.50
2019-02-15T17:57:24.111Z,1.39
2019-02-15T18:00:31.730Z,1.31
2019-02-15T18:03:38.117Z,1.20
2019-02-15T18:06:44.635Z,1.11
2019-02-15T18:09:51.113Z,0.92
2019-02-15T18:12:58.265Z,0.80
2019-02-15T18:16:04.887Z,0.67
2019-02-15T18:19:12.118Z,0.62
2019-02-15T18:22:18.837Z,0.48
2019-02-15T18:25:25.590Z,0.31
2019-02-15T18:28:32.116Z,0.24
2019-02-15T18:31:40.254Z,0.17
2019-02-15T18:34:47.235Z,0.04
2019-02-15T18:37:53.798Z,-0.02
2019-02-15T18:41:00.644Z,-0.06
2019-02-15T18:44:07.700Z,-0.14
2019-02-15T18:47:14.834Z,-0.21
2019-02-15T18:50:21.226Z,-0.34
2019-02-15T18:53:27.939Z,-0.43
2019-02-15T18:56:35.908Z,-0.55
2019-02-15T18:59:43.756Z,-0.61
2019-02-15T19:02:50.520Z,-0.74
2019-02-15T19:05:57.528Z,-0.74
2019-02-15T19:09:05.149Z,-0.79
2019-02-15T19:12:12.391Z,-0.85
2019-02-15T19:15:19.034Z,-0.85
2019-02-15T19:18:25.678Z,-0.87
2019-02-15T19:21:33.293Z,-0.90
2019-02-15T19:24:40.508Z,-0.90
2019-02-15T19:27:47.266Z,-0.92
2019-02-15T19:30:54.299Z,-0.87
2019-02-15T19:34:01.152Z,-0.91
2019-02-15T19:37:07.753Z,-1.07
2019-02-15T19:40:14.856Z,-1.08
2019-02-15T19:43:23.889Z,-0.94
2019-02-15T19:46:30.609Z,-1.12
2019-02-15T19:49:39.069Z,-1.19
2019-02-15T19:52:48.108Z,-1.07
2019-02-15T19:55:55.007Z,-1.14
2019-02-15T19:59:02.677Z,-1.28
2019-02-15T20:02:09.158Z,-1.32
2019-02-15T20:05:16.604Z,-1.33
2019-02-15T20:08:23.384Z,-1.35
2019-02-15T20:11:29.869Z,-1.47
2019-02-15T20:14:36.452Z,-1.35
2019-02-15T20:17:45.596Z,-1.59
2019-02-15T20:20:52.403Z,-1.65
2019-02-15T20:23:58.932Z,-1.73
2019-02-15T20:27:05.454Z,-1.75
2019-02-15T20:30:14.888Z,-1.71
2019-02-15T20:33:22.664Z,-1.68
2019-02-15T20:36:29.371Z,-1.81
2019-02-15T20:39:35.828Z,-1.80
2019-02-15T20:42:43.783Z,-1.80
2019-02-15T20:45:52.250Z,-1.77
2019-02-15T20:49:04.599Z,-1.74
2019-02-15T20:52:11.548Z,-1.85
2019-02-15T20:55:20.963Z,-1.92
2019-02-15T20:58:29.267Z,-1.97
2019-02-15T21:01:36.961Z,-1.89
2019-02-15T21:04:45.579Z,-1.90
2019-02-15T21:07:53.923Z,-1.87
2019-02-15T21:11:00.918Z,-1.97
2019-02-15T21:14:08.669Z,-2.05
2019-02-15T21:17:15.432Z,-2.02
2019-02-15T21:20:24.456Z,-2.04
2019-02-15T21:23:30.567Z,-1.98
2019-02-15T21:26:37.829Z,-2.02
2019-02-15T21:29:44.660Z,-2.05
2019-02-15T21:32:51.180Z,-2.01
2019-02-15T21:36:01.572Z,-2.09
2019-02-15T21:39:09.336Z,-2.12
2019-02-15T21:42:15.781Z,-2.07
2019-02-15T21:45:22.119Z,-2.01
2019-02-15T21:48:29.202Z,-2.08
2019-02-15T21:51:37.032Z,-2.11
2019-02-15T21:54:43.663Z,-2.11
2019-02-15T21:57:49.916Z,-2.11
2019-02-15T22:00:56.793Z,-2.12
2019-02-15T22:04:03.508Z,-2.16
2019-02-15T22:07:10.578Z,-2.22
2019-02-15T22:10:17.695Z,-2.12
2019-02-15T22:13:25.344Z,-2.18
2019-02-15T22:16:33.329Z,-2.13
2019-02-15T22:19:40.668Z,-2.24
2019-02-15T22:22:48.416Z,-2.37
2019-02-15T22:25:55.060Z,-2.43
2019-02-15T22:29:02.000Z,-2.39
2019-02-15T22:32:09.460Z,-2.39
2019-02-15T22:35:16.740Z,-2.33
2019-02-15T22:38:23.811Z,-2.39
2019-02-15T22:41:30.628Z,-2.40
2019-02-15T22:44:37.959Z,-2.48
2019-02-15T22:47:45.064Z,-2.54
2019-02-15T22:50:51.930Z,-2.57
2019-02-15T22:53:58.935Z,-2.59
2019-02-15T22:57:05.581Z,-2.58
2019-02-15T23:00:17.494Z,-2.47
2019-02-15T23:03:25.730Z,-2.48
2019-02-15T23:06:32.290Z,-2.63
2019-02-15T23:09:39.758Z,-2.56
2019-02-15T23:12:49.406Z,-2.69
2019-02-15T23:15:55.935Z,-2.63
2019-02-15T23:19:02.864Z,-2.72
2019-02-15T23:22:09.876Z,-2.71
2019-02-15T23:25:16.194Z,-2.84
2019-02-15T23:28:22.664Z,-2.83
2019-02-15T23:31:29.625Z,-2.80
2019-02-15T23:34:36.450Z,-2.71
2019-02-15T23:37:43.205Z,-2.68
2019-02-15T23:40:50.254Z,-2.78
2019-02-15T23:43:57.886Z,-2.80
2019-02-15T23:47:04.702Z,-2.87
2019-02-15T23:50:11.521Z,-2.75
2019-02-15T23:53:18.035Z,-2.84
2019-02-15T23:56:24.698Z,-2.90
2019-02-15T23:59:32.631Z,-2.88
